Hlavní strana
METAR-TAF:

METAR-TAF

Letiště :

Ringkøbing-Skjern, Dánsko

zeměpisná šířka: 56-00N, zeměpisná délka: 008-21E, výška: 5 m

Aktuální stav počasí

Zpráva byla vytvořena před 5 hodinami a 38 minutami, v 13:50 UTC
Západoseverozápadní vítr 22 kt
Teplota 7°C
Vlhkost vzduchu 66%
Tlak 1025 hPa
Viditelnost 10 km a více
Polojasno ve výšce 2500 ft

METAR: EKVJ 131350Z 30022KT 9999 SCT025 07/01 Q1025

Čas: 21:28 (19:28 UTC)

Předpověď počasí

Zpráva byla vytvořena před 10 hodinami a 31 minutami, v 08:57 UTC
Předpověď platná od 13 v 09 UTC do 13 v 15 UTC
Západní vítr 15 kt
Viditelnost 10 km a více
Polojasno ve výšce 2000 ft
Dočasný
od 13 v 09 UTC do 13 v 15 UTC
Západoseverozápadní vítr 18 kt s nárazy do 28 kt
Viditelnost: 4000 m
Polojasno ve výšce 1500 ft, Cumulonimbus.
dešťové přeháňky, sníh, malé kroupy nebo krupky

TAF: EKVJ 130857Z 1309/1315 28015KT 9999 SCT020 TEMPO 1309/1315 30018G28KT 4000 SHRASNGS SCT015CB

Stav a předpovědi počasí z více než 4 000 letišť (zprávy METAR a TAF).

Červené a žluté tečky na mapě představují dostupné meteorologické stanice.

Když kurzor umístíte na tečku, zobrazí se název stanice.

Pak kliknutím zobrazíte stav a předpověď počasí.

Chcete-li změnit mapu, kliknutím na zelené tlačítko se znaménkem +mapu přiblížíte, kliknutím na zelené tlačítko se znaménkem – mapu oddálíte a kliknutím na zelené šipky přejdete na sousední mapy.


METAR-TAF: